createdAt,value
2023-05-16T00:02:06.954Z,98171.00
2023-05-16T00:04:34.089Z,98163.00
2023-05-16T00:07:02.678Z,98174.00
2023-05-16T00:09:29.652Z,98165.00
2023-05-16T00:11:56.628Z,98157.00
2023-05-16T00:14:23.673Z,98164.00
2023-05-16T00:16:50.579Z,98157.00
2023-05-16T00:19:17.720Z,98162.00
2023-05-16T00:21:44.701Z,98155.00
2023-05-16T00:24:11.647Z,98146.00
2023-05-16T00:26:38.526Z,98147.00
2023-05-16T00:29:05.436Z,98138.00
2023-05-16T00:31:32.549Z,98153.00
2023-05-16T00:33:59.666Z,98154.00
2023-05-16T00:36:26.699Z,98133.00
2023-05-16T00:38:53.746Z,98128.00
2023-05-16T00:41:20.633Z,98149.00
2023-05-16T00:43:47.566Z,98140.00
2023-05-16T00:46:14.522Z,98136.00
2023-05-16T00:48:41.460Z,98134.00
2023-05-16T00:51:08.393Z,98132.00
2023-05-16T00:53:36.223Z,98131.00
2023-05-16T00:56:03.291Z,98136.00
2023-05-16T00:58:31.573Z,98109.00
2023-05-16T01:00:58.758Z,98129.00
2023-05-16T01:03:25.750Z,98109.00
2023-05-16T01:06:11.501Z,98119.00
2023-05-16T01:08:38.380Z,98120.00
2023-05-16T01:11:09.278Z,98115.00
2023-05-16T01:14:26.739Z,98121.00
2023-05-16T01:17:21.660Z,98118.00
2023-05-16T01:19:59.142Z,98116.00
2023-05-16T01:22:32.520Z,98101.00
2023-05-16T01:25:40.588Z,98108.00
2023-05-16T01:28:08.816Z,98110.00
2023-05-16T01:30:40.427Z,98110.00
2023-05-16T01:33:08.256Z,98112.00
2023-05-16T01:36:06.414Z,98111.00
2023-05-16T01:38:51.821Z,98094.00
2023-05-16T01:41:28.055Z,98102.00
2023-05-16T01:44:02.425Z,98099.00
2023-05-16T01:46:37.704Z,98096.00
2023-05-16T01:49:46.543Z,98086.00
2023-05-16T01:52:27.585Z,98092.00
2023-05-16T01:54:54.555Z,98095.00
2023-05-16T01:57:26.769Z,98086.00
2023-05-16T01:59:58.303Z,98062.00
2023-05-16T02:02:27.518Z,98077.00
2023-05-16T02:04:54.431Z,98064.00
2023-05-16T02:07:21.280Z,98064.00
2023-05-16T02:10:20.278Z,98081.00
2023-05-16T02:12:47.221Z,98070.00
2023-05-16T02:15:14.155Z,98067.00
2023-05-16T02:17:41.103Z,98060.00
2023-05-16T02:20:09.042Z,98073.00
2023-05-16T02:22:36.881Z,98074.00
2023-05-16T02:25:04.186Z,98073.00
2023-05-16T02:27:31.064Z,98067.00
2023-05-16T02:29:58.147Z,98062.00
2023-05-16T02:32:25.234Z,98067.00
2023-05-16T02:34:52.200Z,98062.00
2023-05-16T02:37:19.174Z,98054.00
2023-05-16T02:39:46.094Z,98061.00
2023-05-16T02:42:12.986Z,98049.00
2023-05-16T02:44:39.908Z,98068.00
2023-05-16T02:47:06.858Z,98059.00
2023-05-16T02:49:33.770Z,98043.00
2023-05-16T02:52:00.687Z,98055.00
2023-05-16T02:54:27.588Z,98050.00
2023-05-16T02:56:54.514Z,98037.00
2023-05-16T02:59:21.426Z,98030.00
2023-05-16T03:01:48.380Z,98035.00
2023-05-16T03:04:15.376Z,98022.00
2023-05-16T03:06:42.300Z,98026.00
2023-05-16T03:09:09.206Z,98022.00
2023-05-16T03:11:37.032Z,98010.00
2023-05-16T03:14:04.035Z,98015.00
2023-05-16T03:16:30.977Z,98015.00
2023-05-16T03:18:57.956Z,97994.00
2023-05-16T03:21:24.927Z,98014.00
2023-05-16T03:23:51.873Z,98007.00
2023-05-16T03:26:18.730Z,98010.00
2023-05-16T03:28:45.662Z,97998.00
2023-05-16T03:31:12.639Z,98023.00
2023-05-16T03:33:39.610Z,98004.00
2023-05-16T03:36:06.904Z,98027.00
2023-05-16T03:38:33.801Z,98002.00
2023-05-16T03:41:00.959Z,98012.00
2023-05-16T03:43:27.873Z,97998.00
2023-05-16T03:45:54.970Z,98003.00
2023-05-16T03:48:21.969Z,98000.00
2023-05-16T03:50:48.913Z,98001.00
2023-05-16T03:53:15.877Z,98004.00
2023-05-16T03:55:42.752Z,97978.00
2023-05-16T03:58:09.687Z,98002.00
2023-05-16T04:00:36.538Z,98006.00
2023-05-16T04:03:03.572Z,98005.00
2023-05-16T04:05:30.745Z,97987.00
2023-05-16T04:07:57.815Z,97980.00
2023-05-16T04:10:24.883Z,97980.00
2023-05-16T04:12:51.849Z,97987.00
2023-05-16T04:15:18.930Z,97989.00
2023-05-16T04:17:45.881Z,97954.00
2023-05-16T04:20:12.779Z,97969.00
2023-05-16T04:22:39.695Z,97993.00
2023-05-16T04:25:07.153Z,97982.00
2023-05-16T04:27:34.124Z,97983.00
2023-05-16T04:30:01.152Z,97967.00
2023-05-16T04:32:28.167Z,97967.00
2023-05-16T04:34:55.142Z,97986.00
2023-05-16T04:37:22.069Z,97962.00
2023-05-16T04:39:48.980Z,97965.00
2023-05-16T04:42:15.843Z,97964.00
2023-05-16T04:44:42.742Z,97959.00
2023-05-16T04:47:09.646Z,97967.00
2023-05-16T04:49:36.572Z,97947.00
2023-05-16T04:52:03.581Z,97949.00
2023-05-16T04:54:30.526Z,97851.00
2023-05-16T04:56:57.462Z,97922.00
2023-05-16T04:59:24.442Z,97922.00
2023-05-16T05:01:51.398Z,97822.00
2023-05-16T05:04:18.361Z,97848.00
2023-05-16T05:06:45.260Z,97871.00
2023-05-16T05:09:12.217Z,97860.00
2023-05-16T05:11:39.151Z,97848.00
2023-05-16T05:14:06.045Z,97836.00
2023-05-16T05:16:32.970Z,97805.00
2023-05-16T05:18:59.950Z,97805.00
2023-05-16T05:21:26.974Z,97805.00
2023-05-16T05:23:53.861Z,97777.00
2023-05-16T05:26:20.782Z,97791.00
2023-05-16T05:28:57.493Z,97789.00
2023-05-16T05:31:31.330Z,97798.00
2023-05-16T05:33:58.214Z,97786.00
2023-05-16T05:36:25.141Z,97790.00
2023-05-16T05:38:51.997Z,97781.00
2023-05-16T05:41:18.870Z,97774.00
2023-05-16T05:43:45.833Z,97837.00
2023-05-16T05:46:12.843Z,97798.00
2023-05-16T05:48:39.897Z,97813.00
2023-05-16T05:51:06.788Z,97840.00
2023-05-16T05:53:33.701Z,97809.00
2023-05-16T05:56:00.562Z,97776.00
2023-05-16T05:58:27.496Z,97815.00
2023-05-16T06:00:54.333Z,97813.00
2023-05-16T06:03:21.360Z,97830.00
2023-05-16T06:05:48.421Z,97833.00
2023-05-16T06:08:15.410Z,97838.00
2023-05-16T06:10:42.307Z,97831.00
2023-05-16T06:13:09.164Z,97806.00
2023-05-16T06:15:36.037Z,97815.00
2023-05-16T06:18:03.091Z,97819.00
2023-05-16T06:20:30.031Z,97820.00
2023-05-16T06:22:56.964Z,97829.00
2023-05-16T06:25:23.859Z,97844.00
2023-05-16T06:27:50.774Z,97853.00
2023-05-16T06:30:17.743Z,97888.00
2023-05-16T06:32:44.739Z,97856.00
2023-05-16T06:35:11.675Z,97881.00
2023-05-16T06:37:39.200Z,97893.00
2023-05-16T06:40:08.118Z,97912.00
2023-05-16T06:42:35.046Z,97886.00
2023-05-16T06:45:02.013Z,97886.00
2023-05-16T06:47:28.961Z,97889.00
2023-05-16T06:49:55.992Z,97874.00
2023-05-16T06:52:22.944Z,97862.00
2023-05-16T06:54:49.899Z,97847.00
2023-05-16T06:57:16.897Z,97839.00
2023-05-16T06:59:43.895Z,97851.00
2023-05-16T07:02:10.815Z,97861.00
2023-05-16T07:04:37.798Z,97859.00
2023-05-16T07:07:05.052Z,97856.00
2023-05-16T07:09:31.953Z,97865.00
2023-05-16T07:11:58.854Z,97857.00
2023-05-16T07:14:25.816Z,97865.00
2023-05-16T07:16:52.833Z,97869.00
2023-05-16T07:19:19.993Z,97877.00
2023-05-16T07:21:46.920Z,97870.00
2023-05-16T07:24:13.834Z,97871.00
2023-05-16T07:26:40.762Z,97883.00
2023-05-16T07:29:07.703Z,97880.00
2023-05-16T07:31:34.669Z,97896.00
2023-05-16T07:34:01.609Z,97883.00
2023-05-16T07:36:28.540Z,97910.00
2023-05-16T07:38:55.421Z,97908.00
2023-05-16T07:41:22.329Z,97901.00
2023-05-16T07:43:49.234Z,97897.00
2023-05-16T07:46:16.247Z,97889.00
2023-05-16T07:48:43.195Z,97888.00
2023-05-16T07:51:10.160Z,97896.00
2023-05-16T07:53:37.089Z,97896.00
2023-05-16T07:56:04.430Z,97895.00
2023-05-16T07:58:31.368Z,97888.00
2023-05-16T08:00:58.324Z,97873.00
2023-05-16T08:03:25.315Z,97883.00
2023-05-16T08:05:52.450Z,97877.00
2023-05-16T08:08:19.439Z,97860.00
2023-05-16T08:10:46.395Z,97856.00
2023-05-16T08:13:13.540Z,97861.00
2023-05-16T08:15:40.582Z,97850.00
2023-05-16T08:18:15.705Z,97849.00
2023-05-16T08:20:42.856Z,97850.00
2023-05-16T08:23:10.001Z,97857.00
2023-05-16T08:25:37.004Z,97873.00
2023-05-16T08:28:04.008Z,97878.00
2023-05-16T08:30:30.880Z,97888.00
2023-05-16T08:32:57.918Z,97887.00
2023-05-16T08:35:25.112Z,97885.00
2023-05-16T08:37:52.171Z,97884.00
2023-05-16T08:40:19.393Z,97875.00
2023-05-16T08:42:46.367Z,97884.00
2023-05-16T08:45:13.316Z,97876.00
2023-05-16T08:47:40.563Z,97885.00
2023-05-16T08:50:09.407Z,97879.00
2023-05-16T08:52:36.400Z,97882.00
2023-05-16T08:55:09.961Z,97890.00
2023-05-16T08:57:37.864Z,97872.00
2023-05-16T09:00:07.264Z,97884.00
2023-05-16T09:02:34.235Z,97881.00
2023-05-16T09:05:01.177Z,97877.00
2023-05-16T09:07:28.156Z,97884.00
2023-05-16T09:09:55.060Z,97879.00
2023-05-16T09:12:21.986Z,97886.00
2023-05-16T09:14:48.984Z,97874.00
2023-05-16T09:19:44.397Z,97874.00
2023-05-16T09:22:15.160Z,97872.00
2023-05-16T09:24:45.818Z,97870.00
2023-05-16T09:27:14.775Z,97868.00
2023-05-16T09:29:42.914Z,97857.00
2023-05-16T09:32:14.149Z,97871.00
2023-05-16T09:34:45.414Z,97874.00
2023-05-16T09:37:12.703Z,97867.00
2023-05-16T09:39:51.033Z,97860.00
2023-05-16T09:42:19.646Z,97867.00
2023-05-16T09:44:52.536Z,97876.00
2023-05-16T09:47:20.039Z,97873.00
2023-05-16T09:49:47.886Z,97865.00
2023-05-16T09:52:15.017Z,97866.00
2023-05-16T09:54:41.990Z,97866.00
2023-05-16T09:57:09.019Z,97884.00
2023-05-16T09:59:39.494Z,97886.00
2023-05-16T10:02:07.361Z,97887.00
2023-05-16T10:04:35.281Z,97890.00
2023-05-16T10:07:05.908Z,97886.00
2023-05-16T10:09:36.504Z,97887.00
2023-05-16T10:12:04.830Z,97895.00
2023-05-16T10:14:36.875Z,97905.00
2023-05-16T10:17:11.516Z,97893.00
2023-05-16T10:19:39.484Z,97885.00
2023-05-16T10:22:06.874Z,97883.00
2023-05-16T10:24:43.914Z,97879.00
2023-05-16T10:27:10.909Z,97888.00
2023-05-16T10:29:50.384Z,97889.00
2023-05-16T10:32:22.234Z,97891.00
2023-05-16T10:34:49.203Z,97901.00
2023-05-16T10:37:16.104Z,97902.00
2023-05-16T10:39:43.141Z,97891.00
2023-05-16T10:42:10.205Z,97897.00
2023-05-16T10:44:39.091Z,97898.00
2023-05-16T10:47:06.115Z,97897.00
2023-05-16T10:49:33.149Z,97892.00
2023-05-16T10:52:10.330Z,97904.00
2023-05-16T10:54:41.393Z,97913.00
2023-05-16T10:57:16.010Z,97917.00
2023-05-16T10:59:48.015Z,97920.00
2023-05-16T11:02:40.891Z,97937.00
2023-05-16T11:05:08.751Z,97925.00
2023-05-16T11:07:36.494Z,97921.00
2023-05-16T11:10:10.801Z,97941.00
2023-05-16T11:12:45.290Z,97938.00
2023-05-16T11:15:29.091Z,97934.00
2023-05-16T11:18:10.332Z,97948.00
2023-05-16T11:20:38.594Z,97963.00
2023-05-16T11:23:22.246Z,97963.00
2023-05-16T11:25:53.768Z,97971.00
2023-05-16T11:28:20.826Z,97976.00
2023-05-16T11:30:49.924Z,97973.00
2023-05-16T11:33:17.440Z,97981.00
2023-05-16T11:35:44.840Z,97983.00
2023-05-16T11:38:15.450Z,97981.00
2023-05-16T11:40:45.622Z,97983.00
2023-05-16T11:43:18.196Z,97981.00
2023-05-16T11:45:45.233Z,97985.00
2023-05-16T11:48:21.806Z,97981.00
2023-05-16T11:50:51.881Z,97976.00
2023-05-16T11:53:18.795Z,97972.00
2023-05-16T11:55:48.273Z,97975.00
2023-05-16T11:58:16.555Z,97968.00
2023-05-16T12:00:50.744Z,97981.00
2023-05-16T12:03:19.006Z,97978.00
2023-05-16T12:05:53.478Z,97991.00
2023-05-16T12:08:21.515Z,97992.00
2023-05-16T12:10:52.331Z,98001.00
2023-05-16T12:13:20.756Z,97995.00
2023-05-16T12:15:48.164Z,98000.00
2023-05-16T12:18:16.053Z,97998.00
2023-05-16T12:20:46.050Z,98002.00
2023-05-16T12:23:13.513Z,98005.00
2023-05-16T12:25:45.509Z,98011.00
2023-05-16T12:29:18.863Z,98008.00
2023-05-16T12:31:45.814Z,98013.00
2023-05-16T12:34:20.018Z,98006.00
2023-05-16T12:36:50.884Z,98011.00
2023-05-16T12:39:17.816Z,98002.00
2023-05-16T12:41:44.809Z,98011.00
2023-05-16T12:44:18.923Z,98015.00
2023-05-16T12:46:52.540Z,98009.00
2023-05-16T12:49:23.238Z,98018.00
2023-05-16T12:51:55.168Z,98023.00
2023-05-16T12:54:22.200Z,98023.00
2023-05-16T12:56:49.207Z,98005.00
2023-05-16T12:59:16.197Z,98033.00
2023-05-16T13:01:43.251Z,98032.00
2023-05-16T13:04:10.378Z,98034.00
2023-05-16T13:06:55.532Z,98030.00
2023-05-16T13:09:24.347Z,98035.00
2023-05-16T13:11:51.237Z,98045.00
2023-05-16T13:14:18.169Z,98049.00
2023-05-16T13:16:45.652Z,98041.00
2023-05-16T13:19:12.737Z,98050.00
2023-05-16T13:21:39.853Z,98038.00
2023-05-16T13:24:06.966Z,98047.00
2023-05-16T13:26:33.916Z,98038.00
2023-05-16T13:29:00.877Z,98048.00
2023-05-16T13:31:27.863Z,98073.00
2023-05-16T13:33:54.777Z,98060.00
2023-05-16T13:36:21.694Z,98066.00
2023-05-16T13:38:48.689Z,98059.00
2023-05-16T13:41:15.572Z,98048.00
2023-05-16T13:43:42.495Z,98038.00
2023-05-16T13:46:09.632Z,98026.00
2023-05-16T13:48:36.643Z,98031.00
2023-05-16T13:51:03.763Z,98050.00
2023-05-16T13:53:30.702Z,98061.00
2023-05-16T13:55:58.731Z,98080.00
2023-05-16T13:58:25.700Z,98086.00
2023-05-16T14:00:53.046Z,98095.00
2023-05-16T14:03:20.316Z,98094.00
2023-05-16T14:05:47.455Z,98083.00
2023-05-16T14:08:14.430Z,98090.00
2023-05-16T14:10:41.374Z,98094.00
2023-05-16T14:13:08.291Z,98093.00
2023-05-16T14:15:35.257Z,98093.00
2023-05-16T14:18:02.308Z,98095.00
2023-05-16T14:20:29.301Z,98107.00
2023-05-16T14:22:56.226Z,98103.00
2023-05-16T14:25:23.121Z,98099.00
2023-05-16T14:27:50.110Z,98098.00
2023-05-16T14:30:17.435Z,98093.00
2023-05-16T14:32:44.454Z,98094.00
2023-05-16T14:35:11.411Z,98097.00
2023-05-16T14:37:38.357Z,98063.00
2023-05-16T14:40:07.440Z,98067.00
2023-05-16T14:42:34.417Z,98059.00
2023-05-16T14:45:01.289Z,98065.00
2023-05-16T14:47:28.419Z,98070.00
2023-05-16T14:49:55.414Z,98085.00
2023-05-16T14:52:22.480Z,98084.00
2023-05-16T14:54:49.391Z,98069.00
2023-05-16T14:57:16.320Z,98069.00
2023-05-16T14:59:43.293Z,98046.00
2023-05-16T15:02:10.284Z,98053.00
2023-05-16T15:04:37.439Z,98076.00
2023-05-16T15:07:04.712Z,98075.00
2023-05-16T15:09:31.626Z,98078.00
2023-05-16T15:11:58.575Z,98077.00
2023-05-16T15:14:25.535Z,98076.00
2023-05-16T15:16:52.487Z,98057.00
2023-05-16T15:19:19.585Z,98055.00
2023-05-16T15:21:49.942Z,98045.00
2023-05-16T15:24:20.366Z,98045.00
2023-05-16T15:26:47.296Z,98056.00
2023-05-16T15:29:14.332Z,98049.00
2023-05-16T15:31:41.360Z,98064.00
2023-05-16T15:34:08.355Z,98058.00
2023-05-16T15:36:35.411Z,98047.00
2023-05-16T15:39:02.379Z,98050.00
2023-05-16T15:41:56.404Z,98046.00
2023-05-16T15:44:16.287Z,98041.00
2023-05-16T15:46:43.246Z,98040.00
2023-05-16T15:49:10.193Z,98050.00
2023-05-16T15:51:37.106Z,98045.00
2023-05-16T15:54:04.166Z,98044.00
2023-05-16T15:56:31.180Z,98038.00
2023-05-16T15:58:58.297Z,98041.00
2023-05-16T16:01:25.299Z,98044.00
2023-05-16T16:03:52.451Z,98037.00
2023-05-16T16:06:19.428Z,98050.00
2023-05-16T16:08:46.380Z,98039.00
2023-05-16T16:11:13.318Z,98036.00
2023-05-16T16:13:40.757Z,98040.00
2023-05-16T16:16:07.930Z,98038.00
2023-05-16T16:18:35.078Z,98035.00
2023-05-16T16:21:02.173Z,98044.00
2023-05-16T16:23:30.672Z,98036.00
2023-05-16T16:25:57.655Z,98037.00
2023-05-16T16:28:24.596Z,98051.00
2023-05-16T16:30:51.564Z,98036.00
2023-05-16T16:33:18.543Z,98037.00
2023-05-16T16:35:45.764Z,98050.00
2023-05-16T16:38:12.823Z,98049.00
2023-05-16T16:40:39.865Z,98046.00
2023-05-16T16:43:07.280Z,98052.00
2023-05-16T16:45:34.267Z,98040.00
2023-05-16T16:48:01.214Z,98037.00
2023-05-16T16:50:28.227Z,98045.00
2023-05-16T16:52:55.133Z,98029.00
2023-05-16T16:55:22.143Z,98031.00
2023-05-16T16:57:49.090Z,98041.00
2023-05-16T17:00:16.489Z,98042.00
2023-05-16T17:02:43.682Z,98049.00
2023-05-16T17:05:10.815Z,98043.00
2023-05-16T17:07:37.794Z,98040.00
2023-05-16T17:10:05.827Z,98036.00
2023-05-16T17:12:34.272Z,98056.00
2023-05-16T17:15:01.836Z,98058.00
2023-05-16T17:17:28.971Z,98056.00
2023-05-16T17:19:56.103Z,98052.00
2023-05-16T17:22:23.058Z,98051.00
2023-05-16T17:24:50.048Z,98053.00
2023-05-16T17:27:16.981Z,98045.00
2023-05-16T17:29:43.971Z,98053.00
2023-05-16T17:32:10.951Z,98045.00
2023-05-16T17:34:37.884Z,98052.00
2023-05-16T17:37:06.654Z,98048.00
2023-05-16T17:39:33.680Z,98065.00
2023-05-16T17:42:00.714Z,98058.00
2023-05-16T17:44:27.722Z,98067.00
2023-05-16T17:46:54.724Z,98055.00
2023-05-16T17:49:21.761Z,98057.00
2023-05-16T17:51:57.615Z,98061.00
2023-05-16T17:54:24.526Z,98057.00
2023-05-16T17:56:51.468Z,98057.00
2023-05-16T17:59:18.986Z,98055.00
2023-05-16T18:01:45.959Z,98040.00
2023-05-16T18:04:12.950Z,98048.00
2023-05-16T18:06:39.928Z,98054.00
2023-05-16T18:09:07.378Z,98046.00
2023-05-16T18:11:34.650Z,98052.00
2023-05-16T18:14:01.721Z,98049.00
2023-05-16T18:16:29.952Z,98046.00
2023-05-16T18:18:57.984Z,98041.00
2023-05-16T18:21:25.103Z,98050.00
2023-05-16T18:23:52.083Z,98058.00
2023-05-16T18:26:19.118Z,98056.00
2023-05-16T18:28:46.210Z,98042.00
2023-05-16T18:31:13.103Z,98041.00
2023-05-16T18:33:40.132Z,98054.00
2023-05-16T18:36:07.360Z,98059.00
2023-05-16T18:38:34.599Z,98055.00
2023-05-16T18:41:01.768Z,98048.00
2023-05-16T18:43:29.088Z,98049.00
2023-05-16T18:45:56.113Z,98049.00
2023-05-16T18:48:23.131Z,98046.00
2023-05-16T18:50:50.064Z,98051.00
2023-05-16T18:53:16.970Z,98056.00
2023-05-16T18:55:43.943Z,98057.00
2023-05-16T18:58:10.839Z,98038.00
2023-05-16T19:00:37.796Z,98056.00
2023-05-16T19:03:04.926Z,98053.00
2023-05-16T19:05:32.220Z,98055.00
2023-05-16T19:07:59.611Z,98057.00
2023-05-16T19:10:26.773Z,98061.00
2023-05-16T19:12:53.945Z,98063.00
2023-05-16T19:15:20.934Z,98076.00
2023-05-16T19:17:47.945Z,98064.00
2023-05-16T19:20:14.988Z,98056.00
2023-05-16T19:22:42.067Z,98065.00
2023-05-16T19:25:09.567Z,98057.00
2023-05-16T19:27:36.501Z,98067.00
2023-05-16T19:30:04.555Z,98065.00
2023-05-16T19:32:33.997Z,98078.00
2023-05-16T19:35:01.060Z,98080.00
2023-05-16T19:37:28.077Z,98071.00
2023-05-16T19:40:10.454Z,98081.00
2023-05-16T19:42:37.492Z,98082.00
2023-05-16T19:45:05.064Z,98087.00
2023-05-16T19:47:34.784Z,98082.00
2023-05-16T19:50:04.109Z,98090.00
2023-05-16T19:52:31.038Z,98091.00
2023-05-16T19:54:58.016Z,98085.00
2023-05-16T19:57:25.072Z,98110.00
2023-05-16T19:59:52.142Z,98114.00
2023-05-16T20:02:24.846Z,98110.00
2023-05-16T20:04:52.003Z,98092.00
2023-05-16T20:07:19.143Z,98099.00
2023-05-16T20:09:46.157Z,98097.00
2023-05-16T20:12:13.226Z,98088.00
2023-05-16T20:14:40.242Z,98098.00
2023-05-16T20:17:07.169Z,98090.00
2023-05-16T20:19:34.227Z,98100.00
2023-05-16T20:22:01.318Z,98105.00
2023-05-16T20:24:28.271Z,98107.00
2023-05-16T20:26:55.236Z,98101.00
2023-05-16T20:29:22.527Z,98105.00
2023-05-16T20:31:49.502Z,98110.00
2023-05-16T20:34:16.441Z,98105.00
2023-05-16T20:36:43.457Z,98098.00
2023-05-16T20:39:10.512Z,98097.00
2023-05-16T20:41:37.462Z,98097.00
2023-05-16T20:44:04.497Z,98102.00
2023-05-16T20:46:31.551Z,98099.00
2023-05-16T20:48:58.619Z,98112.00
2023-05-16T20:51:25.614Z,98108.00
2023-05-16T20:53:52.553Z,98102.00
2023-05-16T20:56:19.451Z,98095.00
2023-05-16T20:58:46.379Z,98102.00
2023-05-16T21:01:13.294Z,98100.00
2023-05-16T21:03:40.287Z,98088.00
2023-05-16T21:06:07.433Z,98097.00
2023-05-16T21:08:34.565Z,98085.00
2023-05-16T21:11:01.551Z,98093.00
2023-05-16T21:13:28.571Z,98083.00
2023-05-16T21:15:55.631Z,98087.00
2023-05-16T21:18:24.439Z,98093.00
2023-05-16T21:20:51.429Z,98092.00
2023-05-16T21:23:18.344Z,98082.00
2023-05-16T21:25:45.269Z,98082.00
2023-05-16T21:28:12.190Z,98096.00
2023-05-16T21:30:39.100Z,98102.00
2023-05-16T21:33:06.082Z,98090.00
2023-05-16T21:35:33.245Z,98089.00
2023-05-16T21:38:00.201Z,98092.00
2023-05-16T21:40:27.366Z,98093.00
2023-05-16T21:42:54.317Z,98084.00
2023-05-16T21:45:21.366Z,98104.00
2023-05-16T21:47:48.356Z,98091.00
2023-05-16T21:50:15.418Z,98103.00
2023-05-16T21:52:42.419Z,98101.00
2023-05-16T21:55:09.675Z,98101.00
2023-05-16T21:57:36.817Z,98109.00
2023-05-16T22:00:04.699Z,98099.00
2023-05-16T22:02:31.845Z,98108.00
2023-05-16T22:04:58.934Z,98097.00
2023-05-16T22:07:25.925Z,98100.00
2023-05-16T22:09:52.908Z,98100.00
2023-05-16T22:12:19.799Z,98107.00
2023-05-16T22:14:46.773Z,98106.00
2023-05-16T22:17:13.720Z,98110.00
2023-05-16T22:19:40.878Z,98101.00
2023-05-16T22:22:08.908Z,98116.00
2023-05-16T22:24:35.846Z,98106.00
2023-05-16T22:27:02.873Z,98108.00
2023-05-16T22:29:29.844Z,98097.00
2023-05-16T22:31:56.918Z,98106.00
2023-05-16T22:34:23.806Z,98107.00
2023-05-16T22:36:50.816Z,98103.00
2023-05-16T22:39:17.800Z,98102.00
2023-05-16T22:41:44.773Z,98116.00
2023-05-16T22:44:11.626Z,98106.00
2023-05-16T22:46:38.529Z,98121.00
2023-05-16T22:49:05.456Z,98116.00
2023-05-16T22:51:32.444Z,98110.00
2023-05-16T22:53:59.496Z,98119.00
2023-05-16T22:56:26.483Z,98111.00
2023-05-16T22:58:53.400Z,98117.00
2023-05-16T23:01:20.475Z,98121.00
2023-05-16T23:03:47.661Z,98127.00
2023-05-16T23:06:14.654Z,98120.00
2023-05-16T23:08:41.565Z,98123.00
2023-05-16T23:11:08.640Z,98134.00
2023-05-16T23:13:35.683Z,98130.00
2023-05-16T23:16:02.712Z,98117.00
2023-05-16T23:18:29.909Z,98128.00
2023-05-16T23:20:56.912Z,98128.00
2023-05-16T23:23:23.882Z,98132.00
2023-05-16T23:25:50.943Z,98141.00
2023-05-16T23:28:17.914Z,98136.00
2023-05-16T23:30:45.065Z,98132.00
2023-05-16T23:33:12.172Z,98140.00
2023-05-16T23:35:39.174Z,98138.00
2023-05-16T23:38:06.138Z,98148.00
2023-05-16T23:40:33.082Z,98154.00
2023-05-16T23:43:00.046Z,98141.00
2023-05-16T23:45:27.288Z,98137.00
2023-05-16T23:47:54.461Z,98158.00
2023-05-16T23:50:21.438Z,98152.00
2023-05-16T23:52:48.541Z,98154.00
2023-05-16T23:55:15.528Z,98139.00
2023-05-16T23:57:42.453Z,98144.00
